createdAt,value
2022-09-21T00:01:11.822Z,99385.78
2022-09-21T00:03:38.792Z,99386.44
2022-09-21T00:06:07.316Z,99383.13
2022-09-21T00:08:33.815Z,99388.72
2022-09-21T00:11:00.568Z,99389.78
2022-09-21T00:13:28.291Z,99385.91
2022-09-21T00:15:56.438Z,99383.25
2022-09-21T00:18:24.012Z,99391.72
2022-09-21T00:20:52.299Z,99390.25
2022-09-21T00:23:19.685Z,99395.72
2022-09-21T00:25:46.075Z,99391.06
2022-09-21T00:28:13.033Z,99394.19
2022-09-21T00:30:39.580Z,99394.19
2022-09-21T00:33:06.878Z,99394.19
2022-09-21T00:35:33.548Z,99394.56
2022-09-21T00:38:03.493Z,99394.09
2022-09-21T00:40:30.616Z,99393.63
2022-09-21T00:43:15.025Z,99396.38
2022-09-21T00:45:43.011Z,99397.63
2022-09-21T00:48:09.760Z,99401.44
2022-09-21T00:50:41.158Z,99402.69
2022-09-21T00:53:07.593Z,99393.22
2022-09-21T00:55:37.776Z,99402.84
2022-09-21T00:58:12.257Z,99401.06
2022-09-21T01:00:40.317Z,99404.03
2022-09-21T01:03:08.529Z,99404.94
2022-09-21T01:05:34.947Z,99403.91
2022-09-21T01:08:03.751Z,99403.69
2022-09-21T01:10:38.378Z,99411.00
2022-09-21T01:13:18.811Z,99403.25
2022-09-21T01:16:04.778Z,99406.84
2022-09-21T01:18:43.771Z,99408.94
2022-09-21T01:21:29.627Z,99407.22
2022-09-21T01:24:07.983Z,99409.41
2022-09-21T01:26:56.793Z,99406.50
2022-09-21T01:29:43.255Z,99413.41
2022-09-21T01:32:38.435Z,99408.84
2022-09-21T01:35:11.047Z,99414.34
2022-09-21T01:38:10.581Z,99413.56
2022-09-21T01:40:41.755Z,99418.72
2022-09-21T01:43:14.049Z,99424.28
2022-09-21T01:45:45.938Z,99418.13
2022-09-21T01:48:14.238Z,99416.97
2022-09-21T01:50:46.742Z,99416.25
2022-09-21T01:53:42.018Z,99415.84
2022-09-21T01:56:18.355Z,99416.69
2022-09-21T01:58:58.133Z,99418.50
2022-09-21T02:01:29.458Z,99418.88
2022-09-21T02:04:06.575Z,99417.38
2022-09-21T02:06:33.019Z,99417.56
2022-09-21T02:08:59.587Z,99417.94
2022-09-21T02:11:26.567Z,99415.69
2022-09-21T02:13:55.314Z,99407.09
2022-09-21T02:16:36.159Z,99409.81
2022-09-21T02:19:24.985Z,99413.59
2022-09-21T02:21:58.316Z,99416.69
2022-09-21T02:24:43.196Z,99410.78
2022-09-21T02:27:28.043Z,99410.38
2022-09-21T02:30:17.968Z,99407.25
2022-09-21T02:32:59.065Z,99405.56
2022-09-21T02:35:36.369Z,99401.69
2022-09-21T02:38:06.072Z,99403.38
2022-09-21T02:40:49.207Z,99407.22
2022-09-21T02:43:22.427Z,99402.97
2022-09-21T02:45:55.653Z,99407.50
2022-09-21T02:48:29.308Z,99402.78
2022-09-21T02:50:58.951Z,99404.63
2022-09-21T02:53:33.684Z,99406.53
2022-09-21T02:56:07.012Z,99406.69
2022-09-21T02:58:40.922Z,99407.81
2022-09-21T03:01:11.647Z,99410.63
2022-09-21T03:03:38.737Z,99404.00
2022-09-21T03:06:05.360Z,99406.56
2022-09-21T03:08:31.750Z,99403.84
2022-09-21T03:10:58.214Z,99410.22
2022-09-21T03:13:25.084Z,99400.72
2022-09-21T03:16:03.183Z,99401.72
2022-09-21T03:18:30.188Z,99409.84
2022-09-21T03:20:56.906Z,99404.97
2022-09-21T03:23:23.423Z,99413.19
2022-09-21T03:25:50.129Z,99422.94
2022-09-21T03:28:16.531Z,99415.03
2022-09-21T03:30:43.173Z,99418.50
2022-09-21T03:33:09.682Z,99423.88
2022-09-21T03:35:36.047Z,99426.53
2022-09-21T03:38:02.779Z,99421.59
2022-09-21T03:40:29.288Z,99430.59
2022-09-21T03:42:55.987Z,99435.31
2022-09-21T03:45:22.548Z,99430.09
2022-09-21T03:47:49.086Z,99429.19
2022-09-21T03:50:15.745Z,99431.13
2022-09-21T03:52:42.184Z,99430.09
2022-09-21T03:55:09.360Z,99430.78
2022-09-21T03:57:36.916Z,99434.81
2022-09-21T04:00:07.184Z,99427.75
2022-09-21T04:02:33.622Z,99432.66
2022-09-21T04:05:00.038Z,99427.47
2022-09-21T04:07:26.521Z,99434.44
2022-09-21T04:09:53.986Z,99431.13
2022-09-21T04:12:23.293Z,99435.63
2022-09-21T04:14:49.718Z,99432.25
2022-09-21T04:17:16.210Z,99432.41
2022-09-21T04:19:45.018Z,99439.63
2022-09-21T04:22:15.371Z,99437.56
2022-09-21T04:24:41.772Z,99443.63
2022-09-21T04:27:09.413Z,99457.25
2022-09-21T04:29:35.921Z,99437.50
2022-09-21T04:32:02.767Z,99438.44
2022-09-21T04:34:31.115Z,99442.66
2022-09-21T04:36:58.423Z,99438.19
2022-09-21T04:39:26.117Z,99440.88
2022-09-21T04:41:52.618Z,99447.28
2022-09-21T04:44:19.367Z,99447.94
2022-09-21T04:46:45.881Z,99446.44
2022-09-21T04:49:12.373Z,99447.59
2022-09-21T04:51:39.016Z,99445.06
2022-09-21T04:54:06.641Z,99450.66
2022-09-21T04:56:33.694Z,99457.78
2022-09-21T04:59:00.138Z,99456.84
2022-09-21T05:01:26.832Z,99460.50
2022-09-21T05:03:53.282Z,99461.56
2022-09-21T05:06:19.787Z,99467.63
2022-09-21T05:09:04.600Z,99470.28
2022-09-21T05:11:31.389Z,99473.91
2022-09-21T05:13:57.770Z,99468.00
2022-09-21T05:16:24.226Z,99474.22
2022-09-21T05:18:53.842Z,99470.66
2022-09-21T05:21:20.311Z,99470.28
2022-09-21T05:23:46.712Z,99473.97
2022-09-21T05:26:13.108Z,99479.16
2022-09-21T05:28:40.451Z,99477.66
2022-09-21T05:31:18.174Z,99484.91
2022-09-21T05:33:54.480Z,99484.44
2022-09-21T05:36:41.767Z,99480.97
2022-09-21T05:39:08.543Z,99488.97
2022-09-21T05:41:35.389Z,99487.63
2022-09-21T05:44:02.168Z,99493.41
2022-09-21T05:46:56.242Z,99493.22
2022-09-21T05:49:30.655Z,99493.91
2022-09-21T05:52:28.068Z,99494.63
2022-09-21T05:54:57.495Z,99493.50
2022-09-21T05:57:48.577Z,99496.25
2022-09-21T06:00:19.892Z,99496.19
2022-09-21T06:02:52.156Z,99493.50
2022-09-21T06:05:19.134Z,99491.50
2022-09-21T06:07:45.597Z,99494.13
2022-09-21T06:10:13.580Z,99493.16
2022-09-21T06:12:40.521Z,99495.78
2022-09-21T06:15:12.301Z,99495.66
2022-09-21T06:17:38.745Z,99485.53
2022-09-21T06:20:07.425Z,99500.78
2022-09-21T06:22:34.646Z,99496.47
2022-09-21T06:25:01.200Z,99498.25
2022-09-21T06:27:28.927Z,99499.50
2022-09-21T06:29:55.313Z,99500.25
2022-09-21T06:32:21.660Z,99495.38
2022-09-21T06:34:48.012Z,99500.44
2022-09-21T06:37:14.374Z,99498.41
2022-09-21T06:39:40.821Z,99492.22
2022-09-21T06:42:07.716Z,99495.66
2022-09-21T06:44:34.084Z,99496.50
2022-09-21T06:47:00.502Z,99499.91
2022-09-21T06:49:28.697Z,99493.69
2022-09-21T06:51:55.881Z,99487.06
2022-09-21T06:54:22.280Z,99495.78
2022-09-21T06:56:48.683Z,99500.94
2022-09-21T06:59:15.103Z,99504.59
2022-09-21T07:01:41.778Z,99502.22
2022-09-21T07:04:09.397Z,99503.78
2022-09-21T07:06:36.009Z,99503.34
2022-09-21T07:11:49.720Z,99508.41
2022-09-21T07:14:16.207Z,99508.75
2022-09-21T07:16:43.370Z,99509.25
2022-09-21T07:19:11.777Z,99511.38
2022-09-21T07:21:38.985Z,99512.09
2022-09-21T07:24:09.599Z,99510.56
2022-09-21T07:26:38.427Z,99513.88
2022-09-21T07:29:05.021Z,99513.38
2022-09-21T07:31:31.653Z,99515.47
2022-09-21T07:33:59.108Z,99517.03
2022-09-21T07:36:25.923Z,99512.53
2022-09-21T07:38:53.392Z,99512.19
2022-09-21T07:41:19.930Z,99516.56
2022-09-21T07:43:47.138Z,99513.41
2022-09-21T07:46:15.500Z,99504.19
2022-09-21T07:48:42.501Z,99512.88
2022-09-21T07:51:11.558Z,99506.53
2022-09-21T07:53:40.940Z,99511.25
2022-09-21T07:56:12.474Z,99501.78
2022-09-21T07:58:58.192Z,99503.50
2022-09-21T08:01:25.689Z,99500.13
2022-09-21T08:03:54.008Z,99500.50
2022-09-21T08:06:21.985Z,99499.53
2022-09-21T08:08:53.699Z,99492.97
2022-09-21T08:11:23.640Z,99502.19
2022-09-21T08:13:54.197Z,99500.31
2022-09-21T08:16:21.105Z,99503.81
2022-09-21T08:18:47.748Z,99500.50
2022-09-21T08:21:14.466Z,99509.03
2022-09-21T08:23:42.530Z,99503.41
2022-09-21T08:26:14.491Z,99499.28
2022-09-21T08:28:40.867Z,99500.84
2022-09-21T08:31:11.029Z,99503.06
2022-09-21T08:33:37.520Z,99499.78
2022-09-21T08:36:05.061Z,99508.28
2022-09-21T08:38:36.331Z,99511.31
2022-09-21T08:41:13.388Z,99506.63
2022-09-21T08:43:45.493Z,99507.06
2022-09-21T08:46:25.420Z,99502.59
2022-09-21T08:49:21.250Z,99510.63
2022-09-21T08:51:54.621Z,99515.03
2022-09-21T08:54:29.166Z,99500.97
2022-09-21T08:57:11.247Z,99506.88
2022-09-21T08:59:42.843Z,99497.34
2022-09-21T09:02:38.794Z,99499.22
2022-09-21T09:05:33.481Z,99499.84
2022-09-21T09:08:16.797Z,99502.56
2022-09-21T09:10:54.884Z,99499.25
2022-09-21T09:13:29.808Z,99499.03
2022-09-21T09:16:02.678Z,99498.69
2022-09-21T09:18:45.252Z,99495.94
2022-09-21T09:21:31.231Z,99503.13
2022-09-21T09:24:05.512Z,99502.84
2022-09-21T09:26:42.562Z,99492.50
2022-09-21T09:29:28.890Z,99500.03
2022-09-21T09:31:57.989Z,99491.88
2022-09-21T09:34:31.944Z,99491.16
2022-09-21T09:37:05.433Z,99494.50
2022-09-21T09:39:32.000Z,99493.44
2022-09-21T09:42:21.954Z,99494.16
2022-09-21T09:45:06.586Z,99490.34
2022-09-21T09:48:04.261Z,99484.97
2022-09-21T09:50:37.376Z,99487.31
2022-09-21T09:53:12.424Z,99482.63
2022-09-21T09:55:48.868Z,99479.16
2022-09-21T09:58:21.380Z,99484.75
2022-09-21T10:00:53.305Z,99483.56
2022-09-21T10:03:28.461Z,99482.59
2022-09-21T10:05:55.306Z,99482.09
2022-09-21T10:08:44.666Z,99481.78
2022-09-21T10:11:13.422Z,99478.03
2022-09-21T10:13:42.608Z,99472.44
2022-09-21T10:16:17.842Z,99468.66
2022-09-21T10:18:56.336Z,99471.38
2022-09-21T10:21:33.256Z,99472.16
2022-09-21T10:24:24.180Z,99458.94
2022-09-21T10:27:02.122Z,99463.94
2022-09-21T10:29:40.114Z,99457.09
2022-09-21T10:32:26.305Z,99459.19
2022-09-21T10:35:14.543Z,99470.34
2022-09-21T10:37:43.785Z,99468.88
2022-09-21T10:40:19.109Z,99467.00
2022-09-21T10:42:48.098Z,99452.69
2022-09-21T10:45:17.908Z,99452.44
2022-09-21T10:48:06.833Z,99462.28
2022-09-21T10:50:42.138Z,99456.34
2022-09-21T10:53:14.717Z,99455.69
2022-09-21T10:56:11.997Z,99454.91
2022-09-21T10:58:39.514Z,99451.50
2022-09-21T11:01:23.695Z,99449.38
2022-09-21T11:03:56.041Z,99445.97
2022-09-21T11:06:41.515Z,99453.38
2022-09-21T11:09:12.212Z,99441.28
2022-09-21T11:12:00.322Z,99445.63
2022-09-21T11:14:43.772Z,99445.22
2022-09-21T11:17:29.324Z,99442.88
2022-09-21T11:20:06.630Z,99443.25
2022-09-21T11:22:43.938Z,99442.28
2022-09-21T11:25:16.281Z,99438.53
2022-09-21T11:27:49.195Z,99435.41
2022-09-21T11:30:18.455Z,99427.41
2022-09-21T11:32:57.241Z,99430.34
2022-09-21T11:35:33.041Z,99428.78
2022-09-21T11:38:17.774Z,99421.38
2022-09-21T11:41:03.509Z,99423.09
2022-09-21T11:43:30.426Z,99423.94
2022-09-21T11:46:18.728Z,99423.41
2022-09-21T11:49:03.614Z,99424.25
2022-09-21T11:51:57.384Z,99420.94
2022-09-21T11:54:44.456Z,99413.44
2022-09-21T11:57:28.407Z,99410.16
2022-09-21T12:00:21.532Z,99418.03
2022-09-21T12:03:05.649Z,99410.38
2022-09-21T12:05:47.014Z,99407.69
2022-09-21T12:08:30.798Z,99409.28
2022-09-21T12:11:13.931Z,99409.47
2022-09-21T12:13:45.360Z,99396.97
2022-09-21T12:16:33.662Z,99402.69
2022-09-21T12:19:07.714Z,99402.16
2022-09-21T12:21:55.243Z,99400.06
2022-09-21T12:24:31.926Z,99399.94
2022-09-21T12:27:07.170Z,99394.75
2022-09-21T12:29:38.092Z,99392.09
2022-09-21T12:32:24.089Z,99388.72
2022-09-21T12:34:56.367Z,99394.59
2022-09-21T12:37:31.852Z,99395.75
2022-09-21T12:40:07.280Z,99391.44
2022-09-21T12:42:38.645Z,99388.31
2022-09-21T12:45:21.877Z,99384.53
2022-09-21T12:48:19.306Z,99389.59
2022-09-21T12:50:48.684Z,99388.25
2022-09-21T12:53:22.068Z,99377.59
2022-09-21T12:56:09.528Z,99391.88
2022-09-21T12:58:50.662Z,99383.22
2022-09-21T13:01:35.429Z,99371.84
2022-09-21T13:04:20.226Z,99368.94
2022-09-21T13:07:00.221Z,99363.84
2022-09-21T13:09:28.232Z,99367.97
2022-09-21T13:11:57.482Z,99360.84
2022-09-21T13:14:30.686Z,99353.41
2022-09-21T13:17:00.971Z,99359.75
2022-09-21T13:19:31.076Z,99355.38
2022-09-21T13:22:18.993Z,99351.44
2022-09-21T13:25:03.158Z,99354.13
2022-09-21T13:28:00.804Z,99353.66
2022-09-21T13:30:47.973Z,99352.94
2022-09-21T13:33:20.511Z,99352.00
2022-09-21T13:36:05.105Z,99351.06
2022-09-21T13:38:58.216Z,99351.34
2022-09-21T13:41:45.506Z,99345.91
2022-09-21T13:44:41.697Z,99337.66
2022-09-21T13:47:11.257Z,99334.88
2022-09-21T13:49:50.714Z,99340.41
2022-09-21T13:52:17.377Z,99328.94
2022-09-21T13:54:53.335Z,99330.59
2022-09-21T13:57:28.296Z,99327.59
2022-09-21T14:00:12.857Z,99334.63
2022-09-21T14:02:42.574Z,99335.63
2022-09-21T14:05:36.060Z,99334.13
2022-09-21T14:08:18.655Z,99332.06
2022-09-21T14:10:54.119Z,99330.09
2022-09-21T14:13:41.881Z,99320.44
2022-09-21T14:16:34.002Z,99318.09
2022-09-21T14:19:02.377Z,99316.81
2022-09-21T14:21:29.794Z,99315.31
2022-09-21T14:24:19.345Z,99313.91
2022-09-21T14:26:52.364Z,99314.28
2022-09-21T14:29:30.832Z,99314.22
2022-09-21T14:32:02.664Z,99310.38
2022-09-21T14:34:35.772Z,99301.53
2022-09-21T14:37:07.078Z,99302.59
2022-09-21T14:39:44.870Z,99297.09
2022-09-21T14:42:19.523Z,99295.78
2022-09-21T14:44:52.063Z,99302.41
2022-09-21T14:47:41.983Z,99292.25
2022-09-21T14:50:27.629Z,99296.53
2022-09-21T14:53:34.415Z,99289.97
2022-09-21T14:56:24.234Z,99293.78
2022-09-21T14:58:53.684Z,99286.19
2022-09-21T15:01:33.217Z,99289.94
2022-09-21T15:04:17.757Z,99281.66
2022-09-21T15:07:24.553Z,99277.13
2022-09-21T15:10:12.664Z,99277.63
2022-09-21T15:12:51.453Z,99265.94
2022-09-21T15:15:23.778Z,99275.47
2022-09-21T15:17:59.766Z,99277.00
2022-09-21T15:20:29.411Z,99274.66
2022-09-21T15:22:57.377Z,99270.16
2022-09-21T15:25:27.705Z,99278.22
2022-09-21T15:27:55.136Z,99272.81
2022-09-21T15:30:24.677Z,99277.44
2022-09-21T15:32:56.569Z,99276.00
2022-09-21T15:35:27.717Z,99272.03
2022-09-21T15:37:57.374Z,99272.97
2022-09-21T15:40:27.902Z,99276.16
2022-09-21T15:43:04.454Z,99262.41
2022-09-21T15:45:54.597Z,99268.63
2022-09-21T15:48:26.064Z,99265.94
2022-09-21T15:50:58.057Z,99274.25
2022-09-21T15:53:39.368Z,99268.06
2022-09-21T15:56:07.305Z,99272.63
2022-09-21T15:58:37.248Z,99277.00
2022-09-21T16:01:15.470Z,99270.25
2022-09-21T16:03:43.290Z,99262.63
2022-09-21T16:06:21.917Z,99273.28
2022-09-21T16:08:48.395Z,99272.06
2022-09-21T16:11:28.118Z,99274.81
2022-09-21T16:14:33.484Z,99264.22
2022-09-21T16:17:09.140Z,99261.19
2022-09-21T16:20:19.704Z,99273.00
2022-09-21T16:22:49.227Z,99274.66
2022-09-21T16:25:37.058Z,99269.47
2022-09-21T16:28:25.949Z,99272.22
2022-09-21T16:30:56.208Z,99270.56
2022-09-21T16:33:43.851Z,99279.50
2022-09-21T16:36:22.266Z,99277.16
2022-09-21T16:38:50.236Z,99276.50
2022-09-21T16:41:16.986Z,99274.59
2022-09-21T16:43:44.466Z,99278.59
2022-09-21T16:46:11.816Z,99275.88
2022-09-21T16:48:38.847Z,99278.47
2022-09-21T16:51:22.224Z,99288.00
2022-09-21T16:53:48.617Z,99284.56
2022-09-21T16:56:15.763Z,99287.69
2022-09-21T16:58:44.060Z,99278.34
2022-09-21T17:01:13.092Z,99284.19
2022-09-21T17:03:40.199Z,99289.97
2022-09-21T17:06:20.881Z,99287.38
2022-09-21T17:08:48.287Z,99286.41
2022-09-21T17:11:22.161Z,99291.66
2022-09-21T17:13:50.377Z,99288.34
2022-09-21T17:16:19.094Z,99283.44
2022-09-21T17:18:46.786Z,99290.81
2022-09-21T17:21:13.360Z,99294.16
2022-09-21T17:23:41.256Z,99291.28
2022-09-21T17:26:21.001Z,99294.06
2022-09-21T17:28:47.695Z,99292.69
2022-09-21T17:31:18.959Z,99295.03
2022-09-21T17:33:50.131Z,99291.13
2022-09-21T17:36:17.872Z,99289.63
2022-09-21T17:38:45.039Z,99299.25
2022-09-21T17:41:23.201Z,99304.34
2022-09-21T17:44:12.097Z,99302.53
2022-09-21T17:46:58.380Z,99307.00
2022-09-21T17:49:26.204Z,99303.06
2022-09-21T17:52:11.200Z,99303.78
2022-09-21T17:54:39.789Z,99310.22
2022-09-21T17:57:18.533Z,99310.78
2022-09-21T17:59:53.670Z,99307.38
2022-09-21T18:02:25.184Z,99312.97
2022-09-21T18:04:58.488Z,99318.13
2022-09-21T18:07:25.165Z,99315.59
2022-09-21T18:09:52.048Z,99319.78
2022-09-21T18:13:01.735Z,99330.03
2022-09-21T18:16:04.359Z,99327.19
2022-09-21T18:18:42.717Z,99335.00
2022-09-21T18:21:16.889Z,99327.81
2022-09-21T18:24:11.915Z,99328.81
2022-09-21T18:26:40.389Z,99334.91
2022-09-21T18:29:37.932Z,99343.19
2022-09-21T18:32:20.883Z,99344.69
2022-09-21T18:34:56.726Z,99349.16
2022-09-21T18:37:41.479Z,99353.97
2022-09-21T18:40:21.936Z,99337.03
2022-09-21T18:43:18.770Z,99351.63
2022-09-21T18:45:58.455Z,99348.88
2022-09-21T18:48:27.653Z,99349.06
2022-09-21T18:51:21.492Z,99346.81
2022-09-21T18:53:56.426Z,99341.50
2022-09-21T18:56:24.971Z,99346.81
2022-09-21T18:58:52.255Z,99350.75
2022-09-21T19:01:21.948Z,99345.28
2022-09-21T19:03:49.745Z,99350.91
2022-09-21T19:06:39.427Z,99348.94
2022-09-21T19:09:28.126Z,99351.31
2022-09-21T19:12:19.491Z,99359.31
2022-09-21T19:15:17.196Z,99350.44
2022-09-21T19:18:27.265Z,99355.38
2022-09-21T19:21:08.410Z,99351.50
2022-09-21T19:24:04.720Z,99351.66
2022-09-21T19:27:08.834Z,99353.94
2022-09-21T19:29:57.074Z,99357.75
2022-09-21T19:32:47.028Z,99354.16
2022-09-21T19:35:21.494Z,99348.03
2022-09-21T19:37:49.271Z,99354.25
2022-09-21T19:40:17.527Z,99349.44
2022-09-21T19:43:13.259Z,99351.56
2022-09-21T19:46:11.812Z,99348.34
2022-09-21T19:48:47.300Z,99341.13
2022-09-21T19:51:19.159Z,99345.50
2022-09-21T19:54:14.026Z,99336.09
2022-09-21T19:57:06.138Z,99343.47
2022-09-21T19:59:45.131Z,99353.63
2022-09-21T20:02:19.914Z,99349.06
2022-09-21T20:04:58.303Z,99355.09
2022-09-21T20:07:25.020Z,99355.50
2022-09-21T20:10:27.045Z,99356.47
2022-09-21T20:13:20.693Z,99360.69
2022-09-21T20:16:18.929Z,99352.47
2022-09-21T20:18:54.048Z,99358.72
2022-09-21T20:21:22.259Z,99353.75
2022-09-21T20:23:58.017Z,99348.91
2022-09-21T20:26:26.384Z,99348.03
2022-09-21T20:28:53.877Z,99353.09
2022-09-21T20:31:22.664Z,99353.94
2022-09-21T20:33:49.384Z,99353.56
2022-09-21T20:36:15.852Z,99351.75
2022-09-21T20:38:42.647Z,99346.28
2022-09-21T20:41:13.635Z,99344.06
2022-09-21T20:43:40.078Z,99336.34
2022-09-21T20:46:07.051Z,99343.34
2022-09-21T20:48:33.496Z,99343.81
2022-09-21T20:51:01.904Z,99342.59
2022-09-21T20:53:28.311Z,99342.84
2022-09-21T20:55:57.091Z,99348.81
2022-09-21T20:58:24.709Z,99347.78
2022-09-21T21:00:55.144Z,99353.06
2022-09-21T21:03:24.583Z,99350.56
2022-09-21T21:05:51.021Z,99344.94
2022-09-21T21:08:17.518Z,99343.81
2022-09-21T21:10:47.138Z,99344.97
2022-09-21T21:13:13.563Z,99352.22
2022-09-21T21:15:40.012Z,99351.16
2022-09-21T21:18:10.892Z,99354.88
2022-09-21T21:20:37.683Z,99348.53
2022-09-21T21:23:07.870Z,99351.44
2022-09-21T21:25:34.741Z,99353.38
2022-09-21T21:28:01.419Z,99357.63
2022-09-21T21:30:27.886Z,99345.25
2022-09-21T21:32:54.365Z,99351.53
2022-09-21T21:35:20.766Z,99347.72
2022-09-21T21:37:47.410Z,99352.38
2022-09-21T21:40:13.932Z,99355.47
2022-09-21T21:42:40.430Z,99361.72
2022-09-21T21:45:07.950Z,99358.78
2022-09-21T21:47:39.728Z,99357.41
2022-09-21T21:50:07.467Z,99359.97
2022-09-21T21:52:34.253Z,99358.69
2022-09-21T21:55:01.074Z,99354.44
2022-09-21T21:57:27.479Z,99359.25
2022-09-21T21:59:53.847Z,99359.31
2022-09-21T22:02:20.437Z,99353.41
2022-09-21T22:04:47.140Z,99359.75
2022-09-21T22:07:13.512Z,99354.25
2022-09-21T22:09:40.027Z,99352.09
2022-09-21T22:12:06.857Z,99358.59
2022-09-21T22:14:33.230Z,99365.75
2022-09-21T22:16:59.694Z,99357.81
2022-09-21T22:19:26.196Z,99360.56
2022-09-21T22:21:54.455Z,99359.97
2022-09-21T22:24:21.401Z,99353.03
2022-09-21T22:26:48.659Z,99353.31
2022-09-21T22:29:17.018Z,99354.53
2022-09-21T22:31:48.240Z,99354.22
2022-09-21T22:34:15.317Z,99350.81
2022-09-21T22:36:43.725Z,99351.41
2022-09-21T22:39:10.679Z,99352.88
2022-09-21T22:41:39.473Z,99350.63
2022-09-21T22:44:06.043Z,99355.59
2022-09-21T22:46:33.421Z,99355.59
2022-09-21T22:49:00.581Z,99350.72
2022-09-21T22:51:28.330Z,99352.06
2022-09-21T22:53:55.360Z,99350.66
2022-09-21T22:56:26.946Z,99357.09
2022-09-21T22:58:56.579Z,99347.47
2022-09-21T23:01:34.882Z,99344.94
2022-09-21T23:04:10.302Z,99347.88
2022-09-21T23:06:38.743Z,99340.56
2022-09-21T23:09:09.008Z,99340.44
2022-09-21T23:11:38.012Z,99340.22
2022-09-21T23:14:05.051Z,99346.88
2022-09-21T23:16:31.644Z,99339.16
2022-09-21T23:18:58.207Z,99336.34
2022-09-21T23:21:27.457Z,99347.31
2022-09-21T23:24:04.613Z,99342.22
2022-09-21T23:26:33.001Z,99336.84
2022-09-21T23:29:01.938Z,99336.53
2022-09-21T23:31:30.946Z,99333.03
2022-09-21T23:34:00.290Z,99337.97
2022-09-21T23:36:29.157Z,99324.19
2022-09-21T23:38:56.400Z,99335.63
2022-09-21T23:41:25.703Z,99331.19
2022-09-21T23:43:52.188Z,99336.78
2022-09-21T23:46:21.464Z,99332.81
2022-09-21T23:48:48.651Z,99328.84
2022-09-21T23:51:15.914Z,99341.97
2022-09-21T23:53:42.785Z,99341.13
2022-09-21T23:56:13.229Z,99336.53
2022-09-21T23:58:39.626Z,99334.06
